Wilson Harrier — 9HJP9 — position and weather

sailwx.info

Track history (hours):
 
Tides and Currents Weather Stations Pressure Air Temp Water Temp Dewpoint Dewpoint Depression Visibility Wind Speed Wind Dir Waves Ship Positions

Wilson Harrier

Last reported at 2018-Jun-17 08:27 UTC. Time now 2018-Jun-18 21:15 UTC.
Position N 57°39' E 011°05'.

Length 91 m; draft 6 m.

Type: Cargo ship. MMSI: 249066000.

Date/timePositionNaut miles runAvg speedWind from/ knotsBaromVisibWave heightAir tempDewpointWater temp
2018-Jun-17 08:27N 57°39' E 011°05'510.2
2018-Jun-17 08:00N 57°36' E 011°11'5 9.6
2018-Jun-17 07:30N 57°32' E 011°18'5 9.0
2018-Jun-17 07:00N 57°29' E 011°24'5 9.2
2018-Jun-17 06:30N 57°25' E 011°28'5 9.9
2018-Jun-17 06:00N 57°21' E 011°31'7810.1
2018-Jun-16 22:16N 56°09' E 012°30'411.7
2018-Jun-16 21:57N 56°06' E 012°34'512.0
2018-Jun-16 21:30N 56°02' E 012°40'510.5
2018-Jun-16 21:00N 55°57' E 012°43'510.3
2018-Jun-16 20:30N 55°52' E 012°44'510.4
2018-Jun-16 20:00N 55°47' E 012°42'511.0
2018-Jun-16 19:31N 55°41' E 012°41'611.2
2018-Jun-16 19:00N 55°36' E 012°42'510.6
2018-Jun-16 18:30N 55°31' E 012°43'611.1
2018-Jun-16 18:00N 55°25' E 012°42'510.8
2018-Jun-16 17:30N 55°20' E 012°42'510.1
2018-Jun-16 17:00N 55°17' E 012°49'510.1
2018-Jun-16 16:30N 55°16' E 012°58'810.1
2018-Jun-16 15:41N 55°15' E 013°12'210.4
2018-Jun-16 15:30N 55°15' E 013°16'2310.4
2018-Jun-16 13:17N 55°13' E 013°56'310.8
2018-Jun-16 13:00N 55°12' E 014°01'1110.2
2018-Jun-16 11:58N 55°07' E 014°17'510.7
2018-Jun-16 11:30N 55°04' E 014°23'510.7
2018-Jun-16 11:00N 55°00' E 014°31'510.1
2018-Jun-16 10:30N 54°58' E 014°38'510.4
2018-Jun-16 10:00N 54°57' E 014°47'510.5
2018-Jun-16 09:30N 54°56' E 014°56'510.6
2018-Jun-16 09:00N 54°55' E 015°05'510.6
2018-Jun-16 08:30N 54°55' E 015°15'510.5
2018-Jun-16 08:01N 54°54' E 015°24'810.6
2018-Jun-16 07:18N 54°53' E 015°37'910.9
2018-Jun-16 06:28N 54°52' E 015°52'510.8
2018-Jun-16 06:01N 54°51' E 016°01'610.7
2018-Jun-16 05:28N 54°50' E 016°11'5310.2
2018-Jun-16 00:17N 54°56' E 017°43'810.1
2018-Jun-15 23:27N 54°56' E 017°57'1010.2
2018-Jun-15 22:26N 54°57' E 018°15'410.5
2018-Jun-15 22:00N 54°57' E 018°23'510.3
2018-Jun-15 21:31N 54°57' E 018°32'510.4
2018-Jun-15 21:00N 54°54' E 018°40'510.7
2018-Jun-15 20:30N 54°50' E 018°45'510.8
2018-Jun-15 20:00N 54°46' E 018°50'510.8
2018-Jun-15 19:31N 54°41' E 018°56'5 9.7
2018-Jun-15 19:00N 54°36' E 018°54'510.6
2018-Jun-15 18:30N 54°32' E 018°49'510.0
2018-Jun-15 18:00N 54°32' E 018°40'4 7.7
2018-Jun-15 17:29N 54°32' E 018°33'0 0.0
2018-Jun-15 16:59N 54°32' E 018°33'0 0.0
2018-Jun-15 16:30N 54°32' E 018°33'0 0.0
2018-Jun-15 16:00N 54°32' E 018°33'0 0.0
2018-Jun-15 15:30N 54°32' E 018°33'0 0.0
2018-Jun-15 15:00N 54°32' E 018°33'0 0.0
2018-Jun-15 14:30N 54°32' E 018°33'0 0.0
2018-Jun-15 14:00N 54°32' E 018°33'0 0.0
2018-Jun-15 13:30N 54°32' E 018°33'0 0.0
2018-Jun-15 13:00N 54°32' E 018°33'0 0.0
2018-Jun-15 12:30N 54°32' E 018°33'0 0.0
2018-Jun-15 12:00N 54°32' E 018°33'0 0.0
2018-Jun-15 11:30N 54°32' E 018°33'0 0.0
2018-Jun-15 11:00N 54°32' E 018°33'0 0.0
2018-Jun-15 10:30N 54°32' E 018°33'0 0.0
2018-Jun-15 10:00N 54°32' E 018°33'0 0.0
2018-Jun-15 09:30N 54°32' E 018°33'0 0.0
2018-Jun-15 09:00N 54°32' E 018°33'0 0.0
2018-Jun-15 08:30N 54°32' E 018°33'0 0.0
2018-Jun-15 08:00N 54°32' E 018°33'0 0.0
2018-Jun-15 07:30N 54°32' E 018°33'0 0.0
2018-Jun-15 07:00N 54°32' E 018°33'0 0.0
2018-Jun-15 06:30N 54°32' E 018°33'0 0.0
2018-Jun-15 06:00N 54°32' E 018°33'0 0.0
2018-Jun-15 05:30N 54°32' E 018°33'0 0.0
2018-Jun-15 05:00N 54°32' E 018°33'0 0.0
2018-Jun-15 04:30N 54°32' E 018°33'0 0.0
2018-Jun-15 04:00N 54°32' E 018°33'0 0.0
2018-Jun-15 03:30N 54°32' E 018°33'0 0.0
2018-Jun-15 03:00N 54°32' E 018°33'0 0.0
2018-Jun-15 02:30N 54°32' E 018°33'0 0.0
2018-Jun-15 02:00N 54°32' E 018°33'0 0.0
2018-Jun-15 01:30N 54°32' E 018°33'0 0.0
2018-Jun-15 01:00N 54°32' E 018°33'0 0.0
2018-Jun-15 00:30N 54°32' E 018°33'0 0.0
2018-Jun-15 00:00N 54°32' E 018°33'0 0.0
2018-Jun-14 23:30N 54°32' E 018°33'0 0.0
2018-Jun-14 23:00N 54°32' E 018°33'0 0.0
2018-Jun-14 22:30N 54°32' E 018°33'0 0.0
2018-Jun-14 22:00N 54°32' E 018°33'0 0.0
2018-Jun-14 21:30N 54°32' E 018°33'0 0.0
2018-Jun-14 21:00N 54°32' E 018°33'0 0.0
2018-Jun-14 20:30N 54°32' E 018°33'0 0.0
2018-Jun-14 20:00N 54°32' E 018°33'0 0.0
2018-Jun-14 19:30N 54°32' E 018°33'0 0.0
2018-Jun-14 19:00N 54°32' E 018°33'0 0.0
2018-Jun-14 18:30N 54°32' E 018°33'0 0.0
2018-Jun-14 18:00N 54°32' E 018°33'0 0.0
2018-Jun-14 17:30N 54°32' E 018°33'2 4.1
2018-Jun-14 17:00N 54°32' E 018°37'4 8.0
2018-Jun-14 16:30N 54°32' E 018°44'4 8.6
2018-Jun-14 16:00N 54°34' E 018°51'611.7
2018-Jun-14 15:30N 54°39' E 018°56'611.5
2018-Jun-14 15:00N 54°44' E 018°60'611.2
2018-Jun-14 14:30N 54°48' E 018°53'611.7
2018-Jun-14 14:00N 54°52' E 018°45'510.9
2018-Jun-14 13:30N 54°55' E 018°37'611.8
2018-Jun-14 13:00N 54°55' E 018°27'611.9
2018-Jun-14 12:30N 54°54' E 018°16'612.0
2018-Jun-14 12:00N 54°54' E 018°06'20311.3
2018-Jun-13 18:04N 54°32' E 012°17'111.5
2018-Jun-13 18:00N 54°31' E 012°16'611.8
2018-Jun-13 17:30N 54°26' E 012°12'611.0
2018-Jun-13 17:00N 54°25' E 012°03'612.2
2018-Jun-13 16:31N 54°24' E 011°52'913.1
2018-Jun-13 15:50N 54°27' E 011°38'413.0
2018-Jun-13 15:30N 54°29' E 011°31'613.1
2018-Jun-13 15:00N 54°32' E 011°21'713.9
2018-Jun-13 14:30N 54°35' E 011°10'713.2
2018-Jun-13 14:00N 54°35' E 010°59'612.5
2018-Jun-13 13:30N 54°34' E 010°48'611.9
2018-Jun-13 13:00N 54°33' E 010°38'611.6
2018-Jun-13 12:30N 54°31' E 010°28'26 6.4
2018-Jun-13 08:24N 54°22' E 009°47'3 8.8
2018-Jun-13 08:00N 54°19' E 009°43'4 7.6
2018-Jun-13 07:30N 54°17' E 009°38'4 8.5
2018-Jun-13 07:00N 54°13' E 009°35'1 2.2
2018-Jun-13 06:30N 54°12' E 009°33'3 7.0
2018-Jun-13 06:00N 54°11' E 009°28'4 7.8
2018-Jun-13 05:30N 54°09' E 009°22'3 6.0
2018-Jun-13 04:59N 54°06' E 009°20'4 9.2
2018-Jun-13 04:30N 54°02' E 009°18'4 8.3
2018-Jun-13 04:00N 53°58' E 009°15'4 8.7
2018-Jun-13 03:30N 53°55' E 009°11'2 3.2
2018-Jun-13 03:00N 53°53' E 009°09'3 6.2
2018-Jun-13 02:30N 53°52' E 009°04'5 9.8
2018-Jun-13 02:01N 53°51' E 008°56'510.5
2018-Jun-13 01:30N 53°50' E 008°47'510.3
2018-Jun-13 01:00N 53°54' E 008°41'510.1
2018-Jun-13 00:30N 53°58' E 008°35'510.2
2018-Jun-13 00:00N 53°59' E 008°27'510.1
2018-Jun-12 23:30N 53°59' E 008°18'510.6
2018-Jun-12 23:00N 53°60' E 008°09'711.0
2018-Jun-12 22:24N 53°58' E 007°58'9411.9
2018-Jun-12 14:28N 53°33' E 005°24'510.4
2018-Jun-12 14:00N 53°31' E 005°17'510.4
2018-Jun-12 13:30N 53°30' E 005°09'510.0
2018-Jun-12 13:00N 53°28' E 005°01'5 9.8
2018-Jun-12 12:30N 53°26' E 004°53'5 9.3
2018-Jun-12 12:00N 53°24' E 004°46'16 8.9
2018-Jun-12 10:11N 53°10' E 004°32'2 8.8
2018-Jun-12 10:00N 53°09' E 004°31'4 8.6
2018-Jun-12 09:30N 53°05' E 004°27'4 8.9
2018-Jun-12 09:00N 53°01' E 004°24'5 8.7
2018-Jun-12 08:29N 52°57' E 004°20'5 9.2
2018-Jun-12 07:54N 52°53' E 004°16'18 8.1
2018-Jun-12 05:45N 52°35' E 004°19'310.4
2018-Jun-12 05:29N 52°33' E 004°22'510.6
2018-Jun-12 05:00N 52°29' E 004°28'5 9.4
2018-Jun-12 04:31N 52°28' E 004°35'1 1.7
2018-Jun-12 03:59N 52°28' E 004°36'0 0.0
2018-Jun-12 03:29N 52°28' E 004°36'0 0.0
2018-Jun-12 02:59N 52°28' E 004°36'0 0.0
2018-Jun-12 02:29N 52°28' E 004°36'0 0.0
2018-Jun-12 01:59N 52°28' E 004°36'0 0.0
2018-Jun-12 01:29N 52°28' E 004°36'0 0.0
2018-Jun-12 00:56N 52°28' E 004°36'0 0.0
2018-Jun-12 00:29N 52°28' E 004°36'0 0.0
2018-Jun-11 23:59N 52°28' E 004°36'0 0.0
2018-Jun-11 23:29N 52°28' E 004°36'0 0.0
2018-Jun-11 22:56N 52°28' E 004°36'0 0.0
2018-Jun-11 22:29N 52°28' E 004°36'0 0.0
2018-Jun-11 21:59N 52°28' E 004°36'0 0.0
2018-Jun-11 21:29N 52°28' E 004°36'0 0.0
2018-Jun-11 20:59N 52°28' E 004°36'0 0.0
2018-Jun-11 20:29N 52°28' E 004°36'0 0.0
2018-Jun-11 19:59N 52°28' E 004°36'0 0.0
2018-Jun-11 19:29N 52°28' E 004°36'0 0.0
2018-Jun-11 18:59N 52°28' E 004°36'0 0.0
2018-Jun-11 18:29N 52°28' E 004°36'0 0.0
2018-Jun-11 17:59N 52°28' E 004°36'0 0.0
2018-Jun-11 17:29N 52°28' E 004°36'0 0.0
2018-Jun-11 16:59N 52°28' E 004°36'0 0.0
2018-Jun-11 16:26N 52°28' E 004°36'0 0.0
2018-Jun-11 15:56N 52°28' E 004°36'0 0.0
2018-Jun-11 15:29N 52°28' E 004°36'0 0.0
2018-Jun-11 14:56N 52°28' E 004°36'0 0.0
2018-Jun-11 14:29N 52°28' E 004°36'0 0.0
2018-Jun-11 13:59N 52°28' E 004°36'0 0.0
2018-Jun-11 13:29N 52°28' E 004°36'0 0.0
2018-Jun-11 12:59N 52°28' E 004°36'0 0.0
2018-Jun-11 12:29N 52°28' E 004°36'0 0.0
2018-Jun-11 11:59N 52°28' E 004°36'0 0.0
2018-Jun-11 11:29N 52°28' E 004°36'0 0.0
2018-Jun-11 10:59N 52°28' E 004°36'0 0.0
2018-Jun-11 10:29N 52°28' E 004°36'0 0.0
2018-Jun-11 09:59N 52°28' E 004°36'0 0.0
2018-Jun-11 09:29N 52°28' E 004°36'0 0.0
2018-Jun-11 08:59N 52°28' E 004°36'0 0.0
2018-Jun-11 08:29N 52°28' E 004°36'0 0.0
2018-Jun-11 07:59N 52°28' E 004°36'0 0.0
2018-Jun-11 07:29N 52°28' E 004°36'0 0.0
2018-Jun-11 06:59N 52°28' E 004°36'0 0.0
2018-Jun-11 06:29N 52°28' E 004°36'0 0.0
2018-Jun-11 05:58N 52°28' E 004°36'0 0.0
2018-Jun-11 05:22N 52°28' E 004°36'0 0.0
2018-Jun-11 04:58N 52°28' E 004°36'0 0.0
2018-Jun-11 04:28N 52°28' E 004°36'0 0.0
2018-Jun-11 03:58N 52°28' E 004°36'0 0.0
2018-Jun-11 03:25N 52°28' E 004°36'0 0.0
2018-Jun-11 02:58N 52°28' E 004°36'0 0.0
2018-Jun-11 02:28N 52°28' E 004°36'0 0.0
2018-Jun-11 01:58N 52°28' E 004°36'0 0.0
2018-Jun-11 01:28N 52°28' E 004°36'0 0.0
2018-Jun-11 00:58N 52°28' E 004°36'0 0.0
2018-Jun-11 00:25N 52°28' E 004°36'0 0.0
2018-Jun-10 23:58N 52°28' E 004°36'0 0.0
2018-Jun-10 23:28N 52°28' E 004°36'0 0.0
2018-Jun-10 22:58N 52°28' E 004°36'0 0.0
2018-Jun-10 22:28N 52°28' E 004°36'0 0.0
2018-Jun-10 21:58N 52°28' E 004°36'0 0.0
2018-Jun-10 21:28N 52°28' E 004°36'0 0.0
2018-Jun-10 20:58N 52°28' E 004°36'0 0.0
2018-Jun-10 20:25N 52°28' E 004°36'0 0.0
2018-Jun-10 19:58N 52°28' E 004°36'0 0.0
2018-Jun-10 19:28N 52°28' E 004°36'0 0.0
2018-Jun-10 18:58N 52°28' E 004°36'0 0.0
2018-Jun-10 18:28N 52°28' E 004°36'0 0.0
2018-Jun-10 17:55N 52°28' E 004°36'0 0.0
2018-Jun-10 17:28N 52°28' E 004°36'0 0.0
2018-Jun-10 16:58N 52°28' E 004°36'0 0.0
2018-Jun-10 16:28N 52°28' E 004°36'0 0.0
2018-Jun-10 15:58N 52°28' E 004°36'0 0.0
2018-Jun-10 15:28N 52°28' E 004°36'0 0.0
2018-Jun-10 14:58N 52°28' E 004°36'0 0.0
2018-Jun-10 14:28N 52°28' E 004°36'0 0.0
2018-Jun-10 13:28N 52°28' E 004°36'0 0.0
2018-Jun-10 12:59N 52°28' E 004°36'1 3.0
2018-Jun-10 12:30N 52°28' E 004°34'510.8
2018-Jun-10 12:00N 52°28' E 004°25'510.0
2018-Jun-10 11:31N 52°29' E 004°17'4 8.8
2018-Jun-10 11:00N 52°29' E 004°10'2 3.5
2018-Jun-10 10:29N 52°28' E 004°07'0 0.0
2018-Jun-10 09:59N 52°28' E 004°07'0 0.0
2018-Jun-10 09:29N 52°28' E 004°07'0 0.0
2018-Jun-10 08:59N 52°28' E 004°07'0 0.0
2018-Jun-10 08:29N 52°28' E 004°07'0 0.0
2018-Jun-10 07:59N 52°28' E 004°07'0 0.0
2018-Jun-10 07:26N 52°28' E 004°07'0 0.0
2018-Jun-10 06:53N 52°28' E 004°07'0 0.0
2018-Jun-10 06:20N 52°28' E 004°07'0 0.0
2018-Jun-10 05:56N 52°28' E 004°07'0 0.0
2018-Jun-10 05:29N 52°28' E 004°07'0 0.0
2018-Jun-10 04:50N 52°28' E 004°07'0 0.0
2018-Jun-10 04:17N 52°28' E 004°07'0 0.0
2018-Jun-10 03:59N 52°28' E 004°07'0 0.0
2018-Jun-10 03:29N 52°28' E 004°07'0 0.0
2018-Jun-10 02:38N 52°28' E 004°07'0 0.2
2018-Jun-10 02:17N 52°28' E 004°07'0 0.1
2018-Jun-10 01:59N 52°28' E 004°07'0 0.0
2018-Jun-10 01:29N 52°28' E 004°07'0 0.0
2018-Jun-10 00:53N 52°28' E 004°07'0 0.0
2018-Jun-10 00:26N 52°28' E 004°07'0 0.1
2018-Jun-09 23:59N 52°28' E 004°07'0 0.0
2018-Jun-09 23:29N 52°28' E 004°07'0 0.0
2018-Jun-09 22:59N 52°28' E 004°07'0 0.1
2018-Jun-09 22:29N 52°28' E 004°07'0 0.1
2018-Jun-09 21:59N 52°28' E 004°07'0 0.1
2018-Jun-09 21:29N 52°28' E 004°07'0 0.0
2018-Jun-09 20:56N 52°28' E 004°07'0 0.0
2018-Jun-09 20:29N 52°28' E 004°07'0 0.0
2018-Jun-09 19:59N 52°28' E 004°07'0 0.0
2018-Jun-09 19:26N 52°28' E 004°07'0 0.0
2018-Jun-09 18:59N 52°28' E 004°07'0 0.0
2018-Jun-09 18:29N 52°28' E 004°07'0 0.0
2018-Jun-09 17:59N 52°28' E 004°07'0 0.0
2018-Jun-09 17:29N 52°28' E 004°07'0 0.0
2018-Jun-09 16:56N 52°28' E 004°07'0 0.0
2018-Jun-09 16:29N 52°28' E 004°07'0 0.0
2018-Jun-09 15:56N 52°28' E 004°07'0 0.0
2018-Jun-09 14:47N 52°28' E 004°07'0 0.0
2018-Jun-09 14:26N 52°28' E 004°07'0 0.1
2018-Jun-09 13:56N 52°28' E 004°07'0 0.1
2018-Jun-09 13:29N 52°28' E 004°07'0 0.1
2018-Jun-09 12:59N 52°28' E 004°07'0 0.0
2018-Jun-09 12:29N 52°28' E 004°07'0 0.1
2018-Jun-09 11:53N 52°28' E 004°07'0 0.0
2018-Jun-09 11:29N 52°28' E 004°07'0 0.0
2018-Jun-09 10:59N 52°28' E 004°07'0 0.0
2018-Jun-09 10:26N 52°28' E 004°07'0 0.2
2018-Jun-09 09:59N 52°28' E 004°07'0 0.1
2018-Jun-09 09:29N 52°28' E 004°07'0 0.1
2018-Jun-09 08:56N 52°28' E 004°07'0 0.0
2018-Jun-09 08:29N 52°28' E 004°07'0 0.0
2018-Jun-09 07:53N 52°28' E 004°07'0 0.0
2018-Jun-09 07:26N 52°28' E 004°07'0 0.0
2018-Jun-09 06:53N 52°28' E 004°07'0 0.0
2018-Jun-09 06:26N 52°28' E 004°07'0 0.0
2018-Jun-09 05:56N 52°28' E 004°07'0 0.0
2018-Jun-09 05:29N 52°28' E 004°07'0 0.0
2018-Jun-09 04:47N 52°28' E 004°07'0 0.0
2018-Jun-09 04:17N 52°28' E 004°07'0 0.1
2018-Jun-09 03:59N 52°28' E 004°07'3 5.7
2018-Jun-09 03:30N 52°27' E 004°03'510.8
2018-Jun-09 03:00N 52°27' E 003°54'510.9
2018-Jun-09 02:31N 52°25' E 003°46'510.5
2018-Jun-09 02:00N 52°21' E 003°41'611.1
2018-Jun-09 01:30N 52°16' E 003°36'611.1
2018-Jun-09 01:00N 52°11' E 003°32'611.2
2018-Jun-09 00:30N 52°07' E 003°27'611.5
2018-Jun-09 00:00N 52°01' E 003°24'611.6
2018-Jun-08 23:31N 51°55' E 003°23'611.5
2018-Jun-08 22:59N 51°50' E 003°19'611.5
2018-Jun-08 22:30N 51°44' E 003°17'5 9.4
2018-Jun-08 21:59N 51°40' E 003°20'511.1
2018-Jun-08 21:30N 51°35' E 003°24'611.4
2018-Jun-08 21:00N 51°30' E 003°28'510.4
2018-Jun-08 20:30N 51°26' E 003°34'4 8.9
2018-Jun-08 20:00N 51°25' E 003°41'5 9.2
2018-Jun-08 19:30N 51°22' E 003°46'4 8.6
2018-Jun-08 19:00N 51°21' E 003°53'4 8.7
2018-Jun-08 18:30N 51°25' E 003°57'3 5.7
2018-Jun-08 18:00N 51°25' E 004°02'4 7.6
2018-Jun-08 17:31N 51°22' E 004°06'4 8.2
2018-Jun-08 17:00N 51°23' E 004°13'5 9.7
2018-Jun-08 16:30N 51°19' E 004°16'3 6.6
2018-Jun-08 16:00N 51°17' E 004°20'0 0.0
2018-Jun-08 15:31N 51°17' E 004°20'0 0.3
2018-Jun-08 15:00N 51°17' E 004°20'1 1.1
2018-Jun-08 14:30N 51°17' E 004°21'0 0.1
2018-Jun-08 13:51N 51°17' E 004°21'0 0.0
2018-Jun-08 13:30N 51°17' E 004°21'0 0.0
2018-Jun-08 13:00N 51°17' E 004°21'0 0.0
2018-Jun-08 12:31N 51°17' E 004°21'0 0.0
2018-Jun-08 11:57N 51°17' E 004°21'0 0.0
2018-Jun-08 11:27N 51°17' E 004°21'0 0.0
2018-Jun-08 11:00N 51°17' E 004°21'0 0.0
2018-Jun-08 10:24N 51°17' E 004°21'0 0.0
2018-Jun-08 10:00N 51°17' E 004°21'0 0.0
2018-Jun-08 09:27N 51°17' E 004°21'0 0.0
2018-Jun-08 08:54N 51°17' E 004°21'0 0.0
2018-Jun-08 08:30N 51°17' E 004°21'0 0.0
2018-Jun-08 07:51N 51°17' E 004°21'0 0.0
2018-Jun-08 07:30N 51°17' E 004°21'0 0.0
2018-Jun-08 06:54N 51°17' E 004°21'0 0.0
2018-Jun-08 06:30N 51°17' E 004°21'0 0.0
2018-Jun-08 05:51N 51°17' E 004°21'0 0.0
2018-Jun-08 05:30N 51°17' E 004°21'0 0.0
2018-Jun-08 04:57N 51°17' E 004°21'0 0.0
2018-Jun-08 04:30N 51°17' E 004°21'0 0.0
2018-Jun-08 03:57N 51°17' E 004°21'0 0.0
2018-Jun-08 03:24N 51°17' E 004°21'0 0.0
2018-Jun-08 02:57N 51°17' E 004°21'0 0.0
2018-Jun-08 02:27N 51°17' E 004°21'0 0.0
2018-Jun-08 01:57N 51°17' E 004°21'0 0.0
2018-Jun-08 01:27N 51°17' E 004°21'0 0.0
2018-Jun-08 01:00N 51°17' E 004°21'0 0.0
2018-Jun-08 00:30N 51°17' E 004°21'0 0.0
2018-Jun-07 23:57N 51°17' E 004°21'0 0.0
2018-Jun-07 23:27N 51°17' E 004°21'0 0.0
2018-Jun-07 23:00N 51°17' E 004°21'0 0.0
2018-Jun-07 22:24N 51°17' E 004°21'0 0.0
2018-Jun-07 22:00N 51°17' E 004°21'0 0.0
2018-Jun-07 21:30N 51°17' E 004°21'0 0.0
2018-Jun-07 20:57N 51°17' E 004°21'0 0.0
2018-Jun-07 20:30N 51°17' E 004°21'0 0.0
2018-Jun-07 19:54N 51°17' E 004°21'0 0.0
2018-Jun-07 19:24N 51°17' E 004°21'0 0.0
2018-Jun-07 19:00N 51°17' E 004°21'0 0.0
2018-Jun-07 18:30N 51°17' E 004°21'0 0.0
2018-Jun-07 17:57N 51°17' E 004°21'0 0.0
2018-Jun-07 17:27N 51°17' E 004°21'0 0.0
2018-Jun-07 17:00N 51°17' E 004°21'0 0.0
2018-Jun-07 16:30N 51°17' E 004°21'0 0.0
2018-Jun-07 16:00N 51°17' E 004°21'0 0.0
2018-Jun-07 15:30N 51°17' E 004°21'0 0.0
2018-Jun-07 15:00N 51°17' E 004°21'0 0.0
2018-Jun-07 14:30N 51°17' E 004°21'0 0.0
2018-Jun-07 14:00N 51°17' E 004°21'0 0.0
2018-Jun-07 13:27N 51°17' E 004°21'0 0.0
2018-Jun-07 13:00N 51°17' E 004°21'0 0.0
2018-Jun-07 12:30N 51°17' E 004°21'0 0.0
2018-Jun-07 11:57N 51°17' E 004°21'0 0.0
2018-Jun-07 11:30N 51°17' E 004°21'0 0.0
2018-Jun-07 10:57N 51°17' E 004°21'0 0.0
2018-Jun-07 10:30N 51°17' E 004°21'1 1.3
2018-Jun-07 10:00N 51°17' E 004°20'4 7.1
2018-Jun-07 09:31N 51°21' E 004°18'0 0.7
2018-Jun-07 09:00N 51°21' E 004°17'0 0.2
2018-Jun-07 08:31N 51°21' E 004°17'  
Track history (hours):
 
Tides and Currents Weather Stations Pressure Air Temp Water Temp Dewpoint Dewpoint Depression Visibility Wind Speed Wind Dir Waves Ship Positions

Wilson Harrier

Last reported at 2018-Jun-17 08:27 UTC. Time now 2018-Jun-18 21:15 UTC.
Position N 57°39' E 011°05'.

Length 91 m; draft 6 m.

Type: Cargo ship. MMSI: 249066000.

Date/timePositionNaut miles runAvg speedWind from/ knotsBaromVisibWave heightAir tempDewpointWater temp
2018-Jun-17 08:27N 57°39' E 011°05'510.2
2018-Jun-17 08:00N 57°36' E 011°11'5 9.6
2018-Jun-17 07:30N 57°32' E 011°18'5 9.0
2018-Jun-17 07:00N 57°29' E 011°24'5 9.2
2018-Jun-17 06:30N 57°25' E 011°28'5 9.9
2018-Jun-17 06:00N 57°21' E 011°31'7810.1
2018-Jun-16 22:16N 56°09' E 012°30'411.7
2018-Jun-16 21:57N 56°06' E 012°34'512.0
2018-Jun-16 21:30N 56°02' E 012°40'510.5
2018-Jun-16 21:00N 55°57' E 012°43'510.3
2018-Jun-16 20:30N 55°52' E 012°44'510.4
2018-Jun-16 20:00N 55°47' E 012°42'511.0
2018-Jun-16 19:31N 55°41' E 012°41'611.2
2018-Jun-16 19:00N 55°36' E 012°42'510.6
2018-Jun-16 18:30N 55°31' E 012°43'611.1
2018-Jun-16 18:00N 55°25' E 012°42'510.8
2018-Jun-16 17:30N 55°20' E 012°42'510.1
2018-Jun-16 17:00N 55°17' E 012°49'510.1
2018-Jun-16 16:30N 55°16' E 012°58'810.1
2018-Jun-16 15:41N 55°15' E 013°12'210.4
2018-Jun-16 15:30N 55°15' E 013°16'2310.4
2018-Jun-16 13:17N 55°13' E 013°56'310.8
2018-Jun-16 13:00N 55°12' E 014°01'1110.2
2018-Jun-16 11:58N 55°07' E 014°17'510.7
2018-Jun-16 11:30N 55°04' E 014°23'510.7
2018-Jun-16 11:00N 55°00' E 014°31'510.1
2018-Jun-16 10:30N 54°58' E 014°38'510.4
2018-Jun-16 10:00N 54°57' E 014°47'510.5
2018-Jun-16 09:30N 54°56' E 014°56'510.6
2018-Jun-16 09:00N 54°55' E 015°05'510.6
2018-Jun-16 08:30N 54°55' E 015°15'510.5
2018-Jun-16 08:01N 54°54' E 015°24'810.6
2018-Jun-16 07:18N 54°53' E 015°37'910.9
2018-Jun-16 06:28N 54°52' E 015°52'510.8
2018-Jun-16 06:01N 54°51' E 016°01'610.7
2018-Jun-16 05:28N 54°50' E 016°11'5310.2
2018-Jun-16 00:17N 54°56' E 017°43'810.1
2018-Jun-15 23:27N 54°56' E 017°57'1010.2
2018-Jun-15 22:26N 54°57' E 018°15'410.5
2018-Jun-15 22:00N 54°57' E 018°23'510.3
2018-Jun-15 21:31N 54°57' E 018°32'510.4
2018-Jun-15 21:00N 54°54' E 018°40'510.7
2018-Jun-15 20:30N 54°50' E 018°45'510.8
2018-Jun-15 20:00N 54°46' E 018°50'510.8
2018-Jun-15 19:31N 54°41' E 018°56'5 9.7
2018-Jun-15 19:00N 54°36' E 018°54'510.6
2018-Jun-15 18:30N 54°32' E 018°49'510.0
2018-Jun-15 18:00N 54°32' E 018°40'4 7.7
2018-Jun-15 17:29N 54°32' E 018°33'0 0.0
2018-Jun-15 16:59N 54°32' E 018°33'0 0.0
2018-Jun-15 16:30N 54°32' E 018°33'0 0.0
2018-Jun-15 16:00N 54°32' E 018°33'0 0.0
2018-Jun-15 15:30N 54°32' E 018°33'0 0.0
2018-Jun-15 15:00N 54°32' E 018°33'0 0.0
2018-Jun-15 14:30N 54°32' E 018°33'0 0.0
2018-Jun-15 14:00N 54°32' E 018°33'0 0.0
2018-Jun-15 13:30N 54°32' E 018°33'0 0.0
2018-Jun-15 13:00N 54°32' E 018°33'0 0.0
2018-Jun-15 12:30N 54°32' E 018°33'0 0.0
2018-Jun-15 12:00N 54°32' E 018°33'0 0.0
2018-Jun-15 11:30N 54°32' E 018°33'0 0.0
2018-Jun-15 11:00N 54°32' E 018°33'0 0.0
2018-Jun-15 10:30N 54°32' E 018°33'0 0.0
2018-Jun-15 10:00N 54°32' E 018°33'0 0.0
2018-Jun-15 09:30N 54°32' E 018°33'0 0.0
2018-Jun-15 09:00N 54°32' E 018°33'0 0.0
2018-Jun-15 08:30N 54°32' E 018°33'0 0.0
2018-Jun-15 08:00N 54°32' E 018°33'0 0.0
2018-Jun-15 07:30N 54°32' E 018°33'0 0.0
2018-Jun-15 07:00N 54°32' E 018°33'0 0.0
2018-Jun-15 06:30N 54°32' E 018°33'0 0.0
2018-Jun-15 06:00N 54°32' E 018°33'0 0.0
2018-Jun-15 05:30N 54°32' E 018°33'0 0.0
2018-Jun-15 05:00N 54°32' E 018°33'0 0.0
2018-Jun-15 04:30N 54°32' E 018°33'0 0.0
2018-Jun-15 04:00N 54°32' E 018°33'0 0.0
2018-Jun-15 03:30N 54°32' E 018°33'0 0.0
2018-Jun-15 03:00N 54°32' E 018°33'0 0.0
2018-Jun-15 02:30N 54°32' E 018°33'0 0.0
2018-Jun-15 02:00N 54°32' E 018°33'0 0.0
2018-Jun-15 01:30N 54°32' E 018°33'0 0.0
2018-Jun-15 01:00N 54°32' E 018°33'0 0.0
2018-Jun-15 00:30N 54°32' E 018°33'0 0.0
2018-Jun-15 00:00N 54°32' E 018°33'0 0.0
2018-Jun-14 23:30N 54°32' E 018°33'0 0.0
2018-Jun-14 23:00N 54°32' E 018°33'0 0.0
2018-Jun-14 22:30N 54°32' E 018°33'0 0.0
2018-Jun-14 22:00N 54°32' E 018°33'0 0.0
2018-Jun-14 21:30N 54°32' E 018°33'0 0.0
2018-Jun-14 21:00N 54°32' E 018°33'0 0.0
2018-Jun-14 20:30N 54°32' E 018°33'0 0.0
2018-Jun-14 20:00N 54°32' E 018°33'0 0.0
2018-Jun-14 19:30N 54°32' E 018°33'0 0.0
2018-Jun-14 19:00N 54°32' E 018°33'0 0.0
2018-Jun-14 18:30N 54°32' E 018°33'0 0.0
2018-Jun-14 18:00N 54°32' E 018°33'0 0.0
2018-Jun-14 17:30N 54°32' E 018°33'2 4.1
2018-Jun-14 17:00N 54°32' E 018°37'4 8.0
2018-Jun-14 16:30N 54°32' E 018°44'4 8.6
2018-Jun-14 16:00N 54°34' E 018°51'611.7
2018-Jun-14 15:30N 54°39' E 018°56'611.5
2018-Jun-14 15:00N 54°44' E 018°60'611.2
2018-Jun-14 14:30N 54°48' E 018°53'611.7
2018-Jun-14 14:00N 54°52' E 018°45'510.9
2018-Jun-14 13:30N 54°55' E 018°37'611.8
2018-Jun-14 13:00N 54°55' E 018°27'611.9
2018-Jun-14 12:30N 54°54' E 018°16'612.0
2018-Jun-14 12:00N 54°54' E 018°06'20311.3
2018-Jun-13 18:04N 54°32' E 012°17'111.5
2018-Jun-13 18:00N 54°31' E 012°16'611.8
2018-Jun-13 17:30N 54°26' E 012°12'611.0
2018-Jun-13 17:00N 54°25' E 012°03'612.2
2018-Jun-13 16:31N 54°24' E 011°52'913.1
2018-Jun-13 15:50N 54°27' E 011°38'413.0
2018-Jun-13 15:30N 54°29' E 011°31'613.1
2018-Jun-13 15:00N 54°32' E 011°21'713.9
2018-Jun-13 14:30N 54°35' E 011°10'713.2
2018-Jun-13 14:00N 54°35' E 010°59'612.5
2018-Jun-13 13:30N 54°34' E 010°48'611.9
2018-Jun-13 13:00N 54°33' E 010°38'611.6
2018-Jun-13 12:30N 54°31' E 010°28'26 6.4
2018-Jun-13 08:24N 54°22' E 009°47'3 8.8
2018-Jun-13 08:00N 54°19' E 009°43'4 7.6
2018-Jun-13 07:30N 54°17' E 009°38'4 8.5
2018-Jun-13 07:00N 54°13' E 009°35'1 2.2
2018-Jun-13 06:30N 54°12' E 009°33'3 7.0
2018-Jun-13 06:00N 54°11' E 009°28'4 7.8
2018-Jun-13 05:30N 54°09' E 009°22'3 6.0
2018-Jun-13 04:59N 54°06' E 009°20'4 9.2
2018-Jun-13 04:30N 54°02' E 009°18'4 8.3
2018-Jun-13 04:00N 53°58' E 009°15'4 8.7
2018-Jun-13 03:30N 53°55' E 009°11'2 3.2
2018-Jun-13 03:00N 53°53' E 009°09'3 6.2
2018-Jun-13 02:30N 53°52' E 009°04'5 9.8
2018-Jun-13 02:01N 53°51' E 008°56'510.5
2018-Jun-13 01:30N 53°50' E 008°47'510.3
2018-Jun-13 01:00N 53°54' E 008°41'510.1
2018-Jun-13 00:30N 53°58' E 008°35'510.2
2018-Jun-13 00:00N 53°59' E 008°27'510.1
2018-Jun-12 23:30N 53°59' E 008°18'510.6
2018-Jun-12 23:00N 53°60' E 008°09'711.0
2018-Jun-12 22:24N 53°58' E 007°58'9411.9
2018-Jun-12 14:28N 53°33' E 005°24'510.4
2018-Jun-12 14:00N 53°31' E 005°17'510.4
2018-Jun-12 13:30N 53°30' E 005°09'510.0
2018-Jun-12 13:00N 53°28' E 005°01'5 9.8
2018-Jun-12 12:30N 53°26' E 004°53'5 9.3
2018-Jun-12 12:00N 53°24' E 004°46'16 8.9
2018-Jun-12 10:11N 53°10' E 004°32'2 8.8
2018-Jun-12 10:00N 53°09' E 004°31'4 8.6
2018-Jun-12 09:30N 53°05' E 004°27'4 8.9
2018-Jun-12 09:00N 53°01' E 004°24'5 8.7
2018-Jun-12 08:29N 52°57' E 004°20'5 9.2
2018-Jun-12 07:54N 52°53' E 004°16'18 8.1
2018-Jun-12 05:45N 52°35' E 004°19'310.4
2018-Jun-12 05:29N 52°33' E 004°22'510.6
2018-Jun-12 05:00N 52°29' E 004°28'5 9.4
2018-Jun-12 04:31N 52°28' E 004°35'1 1.7
2018-Jun-12 03:59N 52°28' E 004°36'0 0.0
2018-Jun-12 03:29N 52°28' E 004°36'0 0.0
2018-Jun-12 02:59N 52°28' E 004°36'0 0.0
2018-Jun-12 02:29N 52°28' E 004°36'0 0.0
2018-Jun-12 01:59N 52°28' E 004°36'0 0.0
2018-Jun-12 01:29N 52°28' E 004°36'0 0.0
2018-Jun-12 00:56N 52°28' E 004°36'0 0.0
2018-Jun-12 00:29N 52°28' E 004°36'0 0.0
2018-Jun-11 23:59N 52°28' E 004°36'0 0.0
2018-Jun-11 23:29N 52°28' E 004°36'0 0.0
2018-Jun-11 22:56N 52°28' E 004°36'0 0.0
2018-Jun-11 22:29N 52°28' E 004°36'0 0.0
2018-Jun-11 21:59N 52°28' E 004°36'0 0.0
2018-Jun-11 21:29N 52°28' E 004°36'0 0.0
2018-Jun-11 20:59N 52°28' E 004°36'0 0.0
2018-Jun-11 20:29N 52°28' E 004°36'0 0.0
2018-Jun-11 19:59N 52°28' E 004°36'0 0.0
2018-Jun-11 19:29N 52°28' E 004°36'0 0.0
2018-Jun-11 18:59N 52°28' E 004°36'0 0.0
2018-Jun-11 18:29N 52°28' E 004°36'0 0.0
2018-Jun-11 17:59N 52°28' E 004°36'0 0.0
2018-Jun-11 17:29N 52°28' E 004°36'0 0.0
2018-Jun-11 16:59N 52°28' E 004°36'0 0.0
2018-Jun-11 16:26N 52°28' E 004°36'0 0.0
2018-Jun-11 15:56N 52°28' E 004°36'0 0.0
2018-Jun-11 15:29N 52°28' E 004°36'0 0.0
2018-Jun-11 14:56N 52°28' E 004°36'0 0.0
2018-Jun-11 14:29N 52°28' E 004°36'0 0.0
2018-Jun-11 13:59N 52°28' E 004°36'0 0.0
2018-Jun-11 13:29N 52°28' E 004°36'0 0.0
2018-Jun-11 12:59N 52°28' E 004°36'0 0.0
2018-Jun-11 12:29N 52°28' E 004°36'0 0.0
2018-Jun-11 11:59N 52°28' E 004°36'0 0.0
2018-Jun-11 11:29N 52°28' E 004°36'0 0.0
2018-Jun-11 10:59N 52°28' E 004°36'0 0.0
2018-Jun-11 10:29N 52°28' E 004°36'0 0.0
2018-Jun-11 09:59N 52°28' E 004°36'0 0.0
2018-Jun-11 09:29N 52°28' E 004°36'0 0.0
2018-Jun-11 08:59N 52°28' E 004°36'0 0.0
2018-Jun-11 08:29N 52°28' E 004°36'0 0.0
2018-Jun-11 07:59N 52°28' E 004°36'0 0.0
2018-Jun-11 07:29N 52°28' E 004°36'0 0.0
2018-Jun-11 06:59N 52°28' E 004°36'0 0.0
2018-Jun-11 06:29N 52°28' E 004°36'0 0.0
2018-Jun-11 05:58N 52°28' E 004°36'0 0.0
2018-Jun-11 05:22N 52°28' E 004°36'0 0.0
2018-Jun-11 04:58N 52°28' E 004°36'0 0.0
2018-Jun-11 04:28N 52°28' E 004°36'0 0.0
2018-Jun-11 03:58N 52°28' E 004°36'0 0.0
2018-Jun-11 03:25N 52°28' E 004°36'0 0.0
2018-Jun-11 02:58N 52°28' E 004°36'0 0.0
2018-Jun-11 02:28N 52°28' E 004°36'0 0.0
2018-Jun-11 01:58N 52°28' E 004°36'0 0.0
2018-Jun-11 01:28N 52°28' E 004°36'0 0.0
2018-Jun-11 00:58N 52°28' E 004°36'0 0.0
2018-Jun-11 00:25N 52°28' E 004°36'0 0.0
2018-Jun-10 23:58N 52°28' E 004°36'0 0.0
2018-Jun-10 23:28N 52°28' E 004°36'0 0.0
2018-Jun-10 22:58N 52°28' E 004°36'0 0.0
2018-Jun-10 22:28N 52°28' E 004°36'0 0.0
2018-Jun-10 21:58N 52°28' E 004°36'0 0.0
2018-Jun-10 21:28N 52°28' E 004°36'0 0.0
2018-Jun-10 20:58N 52°28' E 004°36'0 0.0
2018-Jun-10 20:25N 52°28' E 004°36'0 0.0
2018-Jun-10 19:58N 52°28' E 004°36'0 0.0
2018-Jun-10 19:28N 52°28' E 004°36'0 0.0
2018-Jun-10 18:58N 52°28' E 004°36'0 0.0
2018-Jun-10 18:28N 52°28' E 004°36'0 0.0
2018-Jun-10 17:55N 52°28' E 004°36'0 0.0
2018-Jun-10 17:28N 52°28' E 004°36'0 0.0
2018-Jun-10 16:58N 52°28' E 004°36'0 0.0
2018-Jun-10 16:28N 52°28' E 004°36'0 0.0
2018-Jun-10 15:58N 52°28' E 004°36'0 0.0
2018-Jun-10 15:28N 52°28' E 004°36'0 0.0
2018-Jun-10 14:58N 52°28' E 004°36'0 0.0
2018-Jun-10 14:28N 52°28' E 004°36'0 0.0
2018-Jun-10 13:28N 52°28' E 004°36'0 0.0
2018-Jun-10 12:59N 52°28' E 004°36'1 3.0
2018-Jun-10 12:30N 52°28' E 004°34'510.8
2018-Jun-10 12:00N 52°28' E 004°25'510.0
2018-Jun-10 11:31N 52°29' E 004°17'4 8.8
2018-Jun-10 11:00N 52°29' E 004°10'2 3.5
2018-Jun-10 10:29N 52°28' E 004°07'0 0.0
2018-Jun-10 09:59N 52°28' E 004°07'0 0.0
2018-Jun-10 09:29N 52°28' E 004°07'0 0.0
2018-Jun-10 08:59N 52°28' E 004°07'0 0.0
2018-Jun-10 08:29N 52°28' E 004°07'0 0.0
2018-Jun-10 07:59N 52°28' E 004°07'0 0.0
2018-Jun-10 07:26N 52°28' E 004°07'0 0.0
2018-Jun-10 06:53N 52°28' E 004°07'0 0.0
2018-Jun-10 06:20N 52°28' E 004°07'0 0.0
2018-Jun-10 05:56N 52°28' E 004°07'0 0.0
2018-Jun-10 05:29N 52°28' E 004°07'0 0.0
2018-Jun-10 04:50N 52°28' E 004°07'0 0.0
2018-Jun-10 04:17N 52°28' E 004°07'0 0.0
2018-Jun-10 03:59N 52°28' E 004°07'0 0.0
2018-Jun-10 03:29N 52°28' E 004°07'0 0.0
2018-Jun-10 02:38N 52°28' E 004°07'0 0.2
2018-Jun-10 02:17N 52°28' E 004°07'0 0.1
2018-Jun-10 01:59N 52°28' E 004°07'0 0.0
2018-Jun-10 01:29N 52°28' E 004°07'0 0.0
2018-Jun-10 00:53N 52°28' E 004°07'0 0.0
2018-Jun-10 00:26N 52°28' E 004°07'0 0.1
2018-Jun-09 23:59N 52°28' E 004°07'0 0.0
2018-Jun-09 23:29N 52°28' E 004°07'0 0.0
2018-Jun-09 22:59N 52°28' E 004°07'0 0.1
2018-Jun-09 22:29N 52°28' E 004°07'0 0.1
2018-Jun-09 21:59N 52°28' E 004°07'0 0.1
2018-Jun-09 21:29N 52°28' E 004°07'0 0.0
2018-Jun-09 20:56N 52°28' E 004°07'0 0.0
2018-Jun-09 20:29N 52°28' E 004°07'0 0.0
2018-Jun-09 19:59N 52°28' E 004°07'0 0.0
2018-Jun-09 19:26N 52°28' E 004°07'0 0.0
2018-Jun-09 18:59N 52°28' E 004°07'0 0.0
2018-Jun-09 18:29N 52°28' E 004°07'0 0.0
2018-Jun-09 17:59N 52°28' E 004°07'0 0.0
2018-Jun-09 17:29N 52°28' E 004°07'0 0.0
2018-Jun-09 16:56N 52°28' E 004°07'0 0.0
2018-Jun-09 16:29N 52°28' E 004°07'0 0.0
2018-Jun-09 15:56N 52°28' E 004°07'0 0.0
2018-Jun-09 14:47N 52°28' E 004°07'0 0.0
2018-Jun-09 14:26N 52°28' E 004°07'0 0.1
2018-Jun-09 13:56N 52°28' E 004°07'0 0.1
2018-Jun-09 13:29N 52°28' E 004°07'0 0.1
2018-Jun-09 12:59N 52°28' E 004°07'0 0.0
2018-Jun-09 12:29N 52°28' E 004°07'0 0.1
2018-Jun-09 11:53N 52°28' E 004°07'0 0.0
2018-Jun-09 11:29N 52°28' E 004°07'0 0.0
2018-Jun-09 10:59N 52°28' E 004°07'0 0.0
2018-Jun-09 10:26N 52°28' E 004°07'0 0.2
2018-Jun-09 09:59N 52°28' E 004°07'0 0.1
2018-Jun-09 09:29N 52°28' E 004°07'0 0.1
2018-Jun-09 08:56N 52°28' E 004°07'0 0.0
2018-Jun-09 08:29N 52°28' E 004°07'0 0.0
2018-Jun-09 07:53N 52°28' E 004°07'0 0.0
2018-Jun-09 07:26N 52°28' E 004°07'0 0.0
2018-Jun-09 06:53N 52°28' E 004°07'0 0.0
2018-Jun-09 06:26N 52°28' E 004°07'0 0.0
2018-Jun-09 05:56N 52°28' E 004°07'0 0.0
2018-Jun-09 05:29N 52°28' E 004°07'0 0.0
2018-Jun-09 04:47N 52°28' E 004°07'0 0.0
2018-Jun-09 04:17N 52°28' E 004°07'0 0.1
2018-Jun-09 03:59N 52°28' E 004°07'3 5.7
2018-Jun-09 03:30N 52°27' E 004°03'510.8
2018-Jun-09 03:00N 52°27' E 003°54'510.9
2018-Jun-09 02:31N 52°25' E 003°46'510.5
2018-Jun-09 02:00N 52°21' E 003°41'611.1
2018-Jun-09 01:30N 52°16' E 003°36'611.1
2018-Jun-09 01:00N 52°11' E 003°32'611.2
2018-Jun-09 00:30N 52°07' E 003°27'611.5
2018-Jun-09 00:00N 52°01' E 003°24'611.6
2018-Jun-08 23:31N 51°55' E 003°23'611.5
2018-Jun-08 22:59N 51°50' E 003°19'611.5
2018-Jun-08 22:30N 51°44' E 003°17'5 9.4
2018-Jun-08 21:59N 51°40' E 003°20'511.1
2018-Jun-08 21:30N 51°35' E 003°24'611.4
2018-Jun-08 21:00N 51°30' E 003°28'510.4
2018-Jun-08 20:30N 51°26' E 003°34'4 8.9
2018-Jun-08 20:00N 51°25' E 003°41'5 9.2
2018-Jun-08 19:30N 51°22' E 003°46'4 8.6
2018-Jun-08 19:00N 51°21' E 003°53'4 8.7
2018-Jun-08 18:30N 51°25' E 003°57'3 5.7
2018-Jun-08 18:00N 51°25' E 004°02'4 7.6
2018-Jun-08 17:31N 51°22' E 004°06'4 8.2
2018-Jun-08 17:00N 51°23' E 004°13'5 9.7
2018-Jun-08 16:30N 51°19' E 004°16'3 6.6
2018-Jun-08 16:00N 51°17' E 004°20'0 0.0
2018-Jun-08 15:31N 51°17' E 004°20'0 0.3
2018-Jun-08 15:00N 51°17' E 004°20'1 1.1
2018-Jun-08 14:30N 51°17' E 004°21'0 0.1
2018-Jun-08 13:51N 51°17' E 004°21'0 0.0
2018-Jun-08 13:30N 51°17' E 004°21'0 0.0
2018-Jun-08 13:00N 51°17' E 004°21'0 0.0
2018-Jun-08 12:31N 51°17' E 004°21'0 0.0
2018-Jun-08 11:57N 51°17' E 004°21'0 0.0
2018-Jun-08 11:27N 51°17' E 004°21'0 0.0
2018-Jun-08 11:00N 51°17' E 004°21'0 0.0
2018-Jun-08 10:24N 51°17' E 004°21'0 0.0
2018-Jun-08 10:00N 51°17' E 004°21'0 0.0
2018-Jun-08 09:27N 51°17' E 004°21'0 0.0
2018-Jun-08 08:54N 51°17' E 004°21'0 0.0
2018-Jun-08 08:30N 51°17' E 004°21'0 0.0
2018-Jun-08 07:51N 51°17' E 004°21'0 0.0
2018-Jun-08 07:30N 51°17' E 004°21'0 0.0
2018-Jun-08 06:54N 51°17' E 004°21'0 0.0
2018-Jun-08 06:30N 51°17' E 004°21'0 0.0
2018-Jun-08 05:51N 51°17' E 004°21'0 0.0
2018-Jun-08 05:30N 51°17' E 004°21'0 0.0
2018-Jun-08 04:57N 51°17' E 004°21'0 0.0
2018-Jun-08 04:30N 51°17' E 004°21'0 0.0
2018-Jun-08 03:57N 51°17' E 004°21'0 0.0
2018-Jun-08 03:24N 51°17' E 004°21'0 0.0
2018-Jun-08 02:57N 51°17' E 004°21'0 0.0
2018-Jun-08 02:27N 51°17' E 004°21'0 0.0
2018-Jun-08 01:57N 51°17' E 004°21'0 0.0
2018-Jun-08 01:27N 51°17' E 004°21'0 0.0
2018-Jun-08 01:00N 51°17' E 004°21'0 0.0
2018-Jun-08 00:30N 51°17' E 004°21'0 0.0
2018-Jun-07 23:57N 51°17' E 004°21'0 0.0
2018-Jun-07 23:27N 51°17' E 004°21'0 0.0
2018-Jun-07 23:00N 51°17' E 004°21'0 0.0
2018-Jun-07 22:24N 51°17' E 004°21'0 0.0
2018-Jun-07 22:00N 51°17' E 004°21'0 0.0
2018-Jun-07 21:30N 51°17' E 004°21'0 0.0
2018-Jun-07 20:57N 51°17' E 004°21'0 0.0
2018-Jun-07 20:30N 51°17' E 004°21'0 0.0
2018-Jun-07 19:54N 51°17' E 004°21'0 0.0
2018-Jun-07 19:24N 51°17' E 004°21'0 0.0
2018-Jun-07 19:00N 51°17' E 004°21'0 0.0
2018-Jun-07 18:30N 51°17' E 004°21'0 0.0
2018-Jun-07 17:57N 51°17' E 004°21'0 0.0
2018-Jun-07 17:27N 51°17' E 004°21'0 0.0
2018-Jun-07 17:00N 51°17' E 004°21'0 0.0
2018-Jun-07 16:30N 51°17' E 004°21'0 0.0
2018-Jun-07 16:00N 51°17' E 004°21'0 0.0
2018-Jun-07 15:30N 51°17' E 004°21'0 0.0
2018-Jun-07 15:00N 51°17' E 004°21'0 0.0
2018-Jun-07 14:30N 51°17' E 004°21'0 0.0
2018-Jun-07 14:00N 51°17' E 004°21'0 0.0
2018-Jun-07 13:27N 51°17' E 004°21'0 0.0
2018-Jun-07 13:00N 51°17' E 004°21'0 0.0
2018-Jun-07 12:30N 51°17' E 004°21'0 0.0
2018-Jun-07 11:57N 51°17' E 004°21'0 0.0
2018-Jun-07 11:30N 51°17' E 004°21'0 0.0
2018-Jun-07 10:57N 51°17' E 004°21'0 0.0
2018-Jun-07 10:30N 51°17' E 004°21'1 1.3
2018-Jun-07 10:00N 51°17' E 004°20'4 7.1
2018-Jun-07 09:31N 51°21' E 004°18'0 0.7
2018-Jun-07 09:00N 51°21' E 004°17'0 0.2
2018-Jun-07 08:31N 51°21' E 004°17'  

Dump ship's entire track history